createdAt,value
2022-10-17T00:00:37.323Z,99057.22
2022-10-17T00:03:04.407Z,99060.88
2022-10-17T00:05:30.997Z,99060.97
2022-10-17T00:07:57.568Z,99063.72
2022-10-17T00:10:24.804Z,99069.06
2022-10-17T00:12:51.932Z,99064.91
2022-10-17T00:15:20.577Z,99071.88
2022-10-17T00:17:47.269Z,99067.56
2022-10-17T00:20:15.376Z,99065.00
2022-10-17T00:22:42.261Z,99072.16
2022-10-17T00:25:09.310Z,99073.09
2022-10-17T00:27:40.662Z,99068.88
2022-10-17T00:30:11.374Z,99066.41
2022-10-17T00:32:37.919Z,99063.03
2022-10-17T00:35:04.767Z,99071.03
2022-10-17T00:37:32.380Z,99072.81
2022-10-17T00:39:59.200Z,99069.44
2022-10-17T00:42:27.219Z,99059.81
2022-10-17T00:45:08.714Z,99069.50
2022-10-17T00:47:36.898Z,99073.94
2022-10-17T00:50:06.692Z,99073.94
2022-10-17T00:52:34.125Z,99070.44
2022-10-17T00:55:16.588Z,99074.88
2022-10-17T00:57:45.223Z,99067.16
2022-10-17T01:00:13.236Z,99064.59
2022-10-17T01:02:39.949Z,99064.72
2022-10-17T01:05:07.683Z,99068.19
2022-10-17T01:07:37.182Z,99069.13
2022-10-17T01:10:05.429Z,99071.94
2022-10-17T01:13:16.532Z,99073.72
2022-10-17T01:16:09.494Z,99081.75
2022-10-17T01:19:11.379Z,99080.03
2022-10-17T01:21:37.945Z,99072.28
2022-10-17T01:24:16.586Z,99077.56
2022-10-17T01:27:04.941Z,99084.72
2022-10-17T01:30:00.409Z,99085.56
2022-10-17T01:32:41.472Z,99080.50
2022-10-17T01:35:11.058Z,99073.44
2022-10-17T01:37:43.515Z,99082.25
2022-10-17T01:40:16.534Z,99070.03
2022-10-17T01:42:57.601Z,99068.53
2022-10-17T01:45:37.459Z,99078.19
2022-10-17T01:48:11.573Z,99070.31
2022-10-17T01:50:43.609Z,99079.41
2022-10-17T01:53:25.594Z,99074.25
2022-10-17T01:55:54.800Z,99073.38
2022-10-17T01:58:40.343Z,99066.50
2022-10-17T02:01:09.793Z,99073.53
2022-10-17T02:03:37.665Z,99070.91
2022-10-17T02:06:04.632Z,99068.38
2022-10-17T02:08:46.333Z,99073.63
2022-10-17T02:11:25.008Z,99071.16
2022-10-17T02:13:58.921Z,99067.59
2022-10-17T02:16:38.282Z,99057.06
2022-10-17T02:19:29.183Z,99058.84
2022-10-17T02:22:26.302Z,99065.06
2022-10-17T02:24:56.573Z,99062.44
2022-10-17T02:27:33.331Z,99063.38
2022-10-17T02:30:08.697Z,99059.03
2022-10-17T02:32:45.455Z,99064.38
2022-10-17T02:35:16.200Z,99063.63
2022-10-17T02:37:45.891Z,99064.56
2022-10-17T02:40:15.291Z,99069.84
2022-10-17T02:42:45.081Z,99079.59
2022-10-17T02:45:12.927Z,99082.31
2022-10-17T02:47:57.379Z,99080.81
2022-10-17T02:50:33.520Z,99077.31
2022-10-17T02:53:09.008Z,99074.84
2022-10-17T02:55:43.591Z,99067.81
2022-10-17T02:58:20.755Z,99073.09
2022-10-17T03:00:48.020Z,99068.66
2022-10-17T03:03:22.442Z,99070.47
2022-10-17T03:05:49.129Z,99071.41
2022-10-17T03:08:15.785Z,99068.16
2022-10-17T03:10:42.301Z,99060.94
2022-10-17T03:13:08.942Z,99058.31
2022-10-17T03:15:35.616Z,99058.41
2022-10-17T03:18:02.477Z,99063.69
2022-10-17T03:20:29.257Z,99062.88
2022-10-17T03:22:55.791Z,99067.31
2022-10-17T03:25:22.340Z,99063.75
2022-10-17T03:27:48.953Z,99069.88
2022-10-17T03:30:15.510Z,99078.78
2022-10-17T03:32:42.043Z,99077.09
2022-10-17T03:35:13.990Z,99086.00
2022-10-17T03:37:41.767Z,99088.63
2022-10-17T03:40:08.732Z,99087.88
2022-10-17T03:42:35.276Z,99095.78
2022-10-17T03:45:01.881Z,99096.78
2022-10-17T03:47:29.452Z,99104.69
2022-10-17T03:49:56.138Z,99102.16
2022-10-17T03:52:22.865Z,99101.28
2022-10-17T03:54:50.874Z,99100.53
2022-10-17T03:57:18.804Z,99105.03
2022-10-17T03:59:45.340Z,99112.16
2022-10-17T04:02:11.932Z,99108.69
2022-10-17T04:04:38.572Z,99106.16
2022-10-17T04:07:05.142Z,99102.75
2022-10-17T04:09:31.692Z,99101.91
2022-10-17T04:11:58.263Z,99103.84
2022-10-17T04:14:24.796Z,99104.78
2022-10-17T04:16:51.499Z,99106.66
2022-10-17T04:19:18.046Z,99122.53
2022-10-17T04:21:44.585Z,99112.84
2022-10-17T04:24:12.161Z,99111.16
2022-10-17T04:26:38.705Z,99111.16
2022-10-17T04:29:05.256Z,99114.66
2022-10-17T04:31:32.494Z,99112.00
2022-10-17T04:33:59.243Z,99119.03
2022-10-17T04:36:26.789Z,99115.56
2022-10-17T04:38:55.241Z,99116.59
2022-10-17T04:41:21.795Z,99117.53
2022-10-17T04:43:51.040Z,99123.63
2022-10-17T04:46:18.570Z,99126.34
2022-10-17T04:48:45.344Z,99122.94
2022-10-17T04:51:14.650Z,99119.47
2022-10-17T04:53:42.555Z,99129.97
2022-10-17T04:56:15.417Z,99119.56
2022-10-17T04:58:43.393Z,99118.88
2022-10-17T05:01:22.900Z,99117.06
2022-10-17T05:03:49.830Z,99115.38
2022-10-17T05:06:22.976Z,99118.09
2022-10-17T05:08:49.728Z,99130.50
2022-10-17T05:11:23.683Z,99127.00
2022-10-17T05:13:52.796Z,99114.84
2022-10-17T05:16:20.154Z,99120.13
2022-10-17T05:18:53.004Z,99119.28
2022-10-17T05:21:20.834Z,99119.47
2022-10-17T05:23:47.504Z,99131.66
2022-10-17T05:26:14.670Z,99119.53
2022-10-17T05:28:41.624Z,99116.06
2022-10-17T05:31:10.490Z,99122.16
2022-10-17T05:33:38.345Z,99133.63
2022-10-17T05:36:06.068Z,99118.84
2022-10-17T05:38:32.860Z,99123.25
2022-10-17T05:41:00.929Z,99128.88
2022-10-17T05:43:29.546Z,99134.94
2022-10-17T05:45:56.442Z,99128.94
2022-10-17T05:48:24.022Z,99131.56
2022-10-17T05:50:57.301Z,99133.31
2022-10-17T05:53:23.842Z,99137.66
2022-10-17T05:56:01.236Z,99144.88
2022-10-17T06:01:15.228Z,99144.72
2022-10-17T06:03:41.760Z,99145.63
2022-10-17T06:06:13.041Z,99144.63
2022-10-17T06:08:40.020Z,99141.84
2022-10-17T06:11:09.893Z,99143.53
2022-10-17T06:13:38.342Z,99155.50
2022-10-17T06:16:05.549Z,99154.59
2022-10-17T06:18:33.581Z,99157.03
2022-10-17T06:21:06.202Z,99157.13
2022-10-17T06:23:32.925Z,99157.75
2022-10-17T06:26:04.450Z,99174.44
2022-10-17T06:28:31.185Z,99172.47
2022-10-17T06:30:57.871Z,99179.19
2022-10-17T06:33:24.534Z,99192.28
2022-10-17T06:35:52.933Z,99188.44
2022-10-17T06:38:19.825Z,99192.72
2022-10-17T06:40:46.402Z,99200.44
2022-10-17T06:43:13.225Z,99204.63
2022-10-17T06:45:40.438Z,99206.03
2022-10-17T06:48:08.158Z,99206.66
2022-10-17T06:50:35.623Z,99209.72
2022-10-17T06:53:02.209Z,99220.25
2022-10-17T06:55:28.762Z,99217.19
2022-10-17T06:57:58.839Z,99217.72
2022-10-17T07:00:26.727Z,99211.34
2022-10-17T07:02:53.260Z,99212.59
2022-10-17T07:05:19.878Z,99219.25
2022-10-17T07:07:48.578Z,99223.56
2022-10-17T07:10:17.359Z,99218.91
2022-10-17T07:12:45.812Z,99229.22
2022-10-17T07:15:12.792Z,99233.69
2022-10-17T07:17:39.462Z,99234.00
2022-10-17T07:20:06.618Z,99243.28
2022-10-17T07:22:33.158Z,99253.06
2022-10-17T07:24:59.721Z,99248.75
2022-10-17T07:27:26.531Z,99253.66
2022-10-17T07:29:53.152Z,99249.03
2022-10-17T07:32:19.687Z,99245.63
2022-10-17T07:34:46.271Z,99249.47
2022-10-17T07:37:12.824Z,99259.06
2022-10-17T07:39:40.050Z,99255.28
2022-10-17T07:42:07.815Z,99252.91
2022-10-17T07:44:35.509Z,99259.19
2022-10-17T07:47:02.508Z,99267.09
2022-10-17T07:49:29.474Z,99277.19
2022-10-17T07:51:56.076Z,99283.09
2022-10-17T07:54:22.736Z,99286.38
2022-10-17T07:56:50.674Z,99277.06
2022-10-17T07:59:20.231Z,99264.84
2022-10-17T08:01:46.935Z,99276.72
2022-10-17T08:04:13.498Z,99277.31
2022-10-17T08:06:40.103Z,99276.22
2022-10-17T08:09:06.675Z,99271.16
2022-10-17T08:11:33.253Z,99270.25
2022-10-17T08:13:59.864Z,99274.38
2022-10-17T08:16:26.574Z,99272.59
2022-10-17T08:18:53.318Z,99272.31
2022-10-17T08:21:19.872Z,99273.81
2022-10-17T08:23:46.553Z,99286.00
2022-10-17T08:26:16.856Z,99289.09
2022-10-17T08:28:43.619Z,99291.53
2022-10-17T08:31:15.945Z,99282.94
2022-10-17T08:33:42.584Z,99285.22
2022-10-17T08:36:14.728Z,99276.19
2022-10-17T08:38:43.669Z,99281.50
2022-10-17T08:41:35.886Z,99284.66
2022-10-17T08:44:31.121Z,99289.69
2022-10-17T08:47:01.384Z,99279.31
2022-10-17T08:49:43.652Z,99283.94
2022-10-17T08:52:25.687Z,99290.59
2022-10-17T08:54:52.592Z,99293.63
2022-10-17T08:57:19.453Z,99279.47
2022-10-17T08:59:52.042Z,99299.59
2022-10-17T09:02:27.423Z,99294.09
2022-10-17T09:05:14.631Z,99295.06
2022-10-17T09:08:09.173Z,99302.78
2022-10-17T09:10:57.354Z,99308.91
2022-10-17T09:13:59.099Z,99303.91
2022-10-17T09:16:40.374Z,99310.03
2022-10-17T09:19:19.412Z,99313.94
2022-10-17T09:21:53.612Z,99313.97
2022-10-17T09:24:44.531Z,99313.31
2022-10-17T09:27:31.577Z,99325.56
2022-10-17T09:30:46.690Z,99323.50
2022-10-17T09:33:28.257Z,99322.84
2022-10-17T09:36:04.896Z,99326.34
2022-10-17T09:38:39.691Z,99325.06
2022-10-17T09:41:39.106Z,99324.56
2022-10-17T09:44:22.525Z,99328.38
2022-10-17T09:47:19.637Z,99334.34
2022-10-17T09:49:47.869Z,99331.09
2022-10-17T09:52:25.353Z,99329.94
2022-10-17T09:55:06.885Z,99333.75
2022-10-17T09:57:53.636Z,99332.47
2022-10-17T10:00:27.044Z,99335.47
2022-10-17T10:03:18.193Z,99329.09
2022-10-17T10:06:18.171Z,99338.00
2022-10-17T10:08:58.431Z,99350.41
2022-10-17T10:11:44.478Z,99342.53
2022-10-17T10:14:13.959Z,99346.88
2022-10-17T10:16:43.884Z,99356.13
2022-10-17T10:19:26.302Z,99357.84
2022-10-17T10:22:01.516Z,99353.16
2022-10-17T10:24:30.988Z,99356.00
2022-10-17T10:27:04.046Z,99355.06
2022-10-17T10:29:49.871Z,99363.72
2022-10-17T10:32:27.206Z,99351.19
2022-10-17T10:34:57.362Z,99354.69
2022-10-17T10:37:24.014Z,99367.84
2022-10-17T10:39:54.629Z,99366.72
2022-10-17T10:42:41.301Z,99370.59
2022-10-17T10:45:42.896Z,99370.63
2022-10-17T10:48:27.652Z,99351.38
2022-10-17T10:50:59.854Z,99359.50
2022-10-17T10:53:38.793Z,99358.16
2022-10-17T10:56:24.415Z,99357.63
2022-10-17T10:59:09.159Z,99371.63
2022-10-17T11:02:00.872Z,99366.75
2022-10-17T11:04:49.799Z,99383.19
2022-10-17T11:07:22.643Z,99383.13
2022-10-17T11:10:12.106Z,99378.84
2022-10-17T11:12:56.265Z,99381.56
2022-10-17T11:15:36.647Z,99365.41
2022-10-17T11:18:08.419Z,99357.94
2022-10-17T11:20:53.350Z,99374.66
2022-10-17T11:23:42.152Z,99374.84
2022-10-17T11:26:19.784Z,99373.22
2022-10-17T11:28:46.423Z,99371.59
2022-10-17T11:31:15.034Z,99370.13
2022-10-17T11:34:19.603Z,99372.31
2022-10-17T11:36:50.727Z,99375.84
2022-10-17T11:39:20.397Z,99382.06
2022-10-17T11:42:12.891Z,99375.00
2022-10-17T11:44:41.307Z,99385.75
2022-10-17T11:47:19.984Z,99379.44
2022-10-17T11:49:53.223Z,99381.34
2022-10-17T11:55:28.272Z,99384.91
2022-10-17T11:58:10.097Z,99385.66
2022-10-17T12:00:51.709Z,99387.41
2022-10-17T12:03:33.427Z,99390.25
2022-10-17T12:06:29.502Z,99385.22
2022-10-17T12:09:10.430Z,99379.94
2022-10-17T12:11:46.132Z,99383.13
2022-10-17T12:14:34.486Z,99384.34
2022-10-17T12:17:02.240Z,99378.28
2022-10-17T12:19:38.089Z,99380.22
2022-10-17T12:22:28.660Z,99371.22
2022-10-17T12:25:01.272Z,99379.34
2022-10-17T12:27:34.324Z,99375.28
2022-10-17T12:30:13.515Z,99377.41
2022-10-17T12:33:12.365Z,99380.47
2022-10-17T12:35:39.404Z,99381.28
2022-10-17T12:38:06.065Z,99379.69
2022-10-17T12:40:35.683Z,99389.41
2022-10-17T12:43:23.392Z,99391.66
2022-10-17T12:46:04.870Z,99392.53
2022-10-17T12:48:34.369Z,99389.78
2022-10-17T12:51:36.120Z,99390.09
2022-10-17T12:54:12.002Z,99387.56
2022-10-17T12:56:46.895Z,99394.38
2022-10-17T12:59:33.916Z,99392.81
2022-10-17T13:02:03.450Z,99387.72
2022-10-17T13:04:31.666Z,99389.31
2022-10-17T13:06:59.264Z,99396.00
2022-10-17T13:09:36.798Z,99390.97
2022-10-17T13:12:10.871Z,99391.28
2022-10-17T13:14:41.629Z,99381.53
2022-10-17T13:17:22.529Z,99377.78
2022-10-17T13:19:49.198Z,99374.47
2022-10-17T13:22:24.712Z,99378.34
2022-10-17T13:24:53.227Z,99377.47
2022-10-17T13:27:32.035Z,99378.50
2022-10-17T13:30:01.279Z,99376.09
2022-10-17T13:32:37.740Z,99384.75
2022-10-17T13:35:13.487Z,99380.44
2022-10-17T13:37:42.510Z,99379.97
2022-10-17T13:40:50.705Z,99383.47
2022-10-17T13:43:19.105Z,99381.63
2022-10-17T13:46:32.645Z,99379.56
2022-10-17T13:48:54.019Z,99385.00
2022-10-17T13:51:20.931Z,99395.22
2022-10-17T13:53:47.841Z,99401.06
2022-10-17T13:56:29.628Z,99401.59
2022-10-17T13:59:00.107Z,99395.13
2022-10-17T14:01:28.697Z,99399.22
2022-10-17T14:04:07.860Z,99402.28
2022-10-17T14:09:16.433Z,99393.75
2022-10-17T14:11:44.636Z,99391.63
2022-10-17T14:14:58.355Z,99390.28
2022-10-17T14:17:27.699Z,99380.78
2022-10-17T14:20:26.552Z,99398.94
2022-10-17T14:23:17.615Z,99395.66
2022-10-17T14:25:39.683Z,99395.66
2022-10-17T14:28:12.750Z,99397.81
2022-10-17T14:30:55.571Z,99392.13
2022-10-17T14:33:31.669Z,99393.84
2022-10-17T14:36:00.885Z,99388.59
2022-10-17T14:38:29.170Z,99386.03
2022-10-17T14:41:30.573Z,99395.22
2022-10-17T14:43:57.923Z,99398.44
2022-10-17T14:46:25.420Z,99398.03
2022-10-17T14:48:54.816Z,99398.28
2022-10-17T14:51:21.632Z,99400.53
2022-10-17T14:54:22.218Z,99405.66
2022-10-17T14:56:52.449Z,99411.78
2022-10-17T14:59:51.410Z,99406.69
2022-10-17T15:02:11.589Z,99410.44
2022-10-17T15:04:38.301Z,99406.28
2022-10-17T15:07:05.073Z,99415.66
2022-10-17T15:09:31.713Z,99410.06
2022-10-17T15:12:02.880Z,99418.00
2022-10-17T15:14:29.430Z,99426.91
2022-10-17T15:16:55.963Z,99428.63
2022-10-17T15:19:22.543Z,99439.22
2022-10-17T15:21:49.202Z,99437.25
2022-10-17T15:24:15.896Z,99444.88
2022-10-17T15:26:44.223Z,99448.84
2022-10-17T15:29:15.290Z,99444.91
2022-10-17T15:31:41.988Z,99442.66
2022-10-17T15:34:08.568Z,99440.59
2022-10-17T15:36:48.165Z,99441.31
2022-10-17T15:39:15.986Z,99450.03
2022-10-17T15:41:42.586Z,99445.81
2022-10-17T15:44:09.098Z,99446.09
2022-10-17T15:46:37.859Z,99445.69
2022-10-17T15:49:10.060Z,99447.19
2022-10-17T15:51:36.638Z,99439.75
2022-10-17T15:54:04.898Z,99446.50
2022-10-17T15:56:35.818Z,99444.53
2022-10-17T15:59:03.874Z,99448.59
2022-10-17T16:01:33.762Z,99446.63
2022-10-17T16:04:00.963Z,99451.84
2022-10-17T16:06:28.340Z,99443.66
2022-10-17T16:08:55.023Z,99451.38
2022-10-17T16:11:35.687Z,99460.94
2022-10-17T16:14:07.829Z,99457.94
2022-10-17T16:16:34.716Z,99449.06
2022-10-17T16:19:02.740Z,99457.84
2022-10-17T16:21:32.672Z,99452.47
2022-10-17T16:24:00.579Z,99464.81
2022-10-17T16:26:28.216Z,99468.84
2022-10-17T16:28:58.292Z,99469.25
2022-10-17T16:31:29.320Z,99469.41
2022-10-17T16:33:57.600Z,99472.44
2022-10-17T16:36:24.423Z,99475.25
2022-10-17T16:38:51.581Z,99475.78
2022-10-17T16:41:28.714Z,99466.47
2022-10-17T16:43:57.988Z,99470.66
2022-10-17T16:46:26.194Z,99477.84
2022-10-17T16:48:53.092Z,99475.28
2022-10-17T16:51:20.625Z,99489.69
2022-10-17T16:53:50.190Z,99484.16
2022-10-17T16:56:19.250Z,99483.09
2022-10-17T16:58:46.700Z,99493.28
2022-10-17T17:01:23.230Z,99491.00
2022-10-17T17:03:50.737Z,99489.56
2022-10-17T17:06:20.706Z,99489.22
2022-10-17T17:08:48.096Z,99488.91
2022-10-17T17:11:16.728Z,99491.56
2022-10-17T17:13:43.501Z,99497.38
2022-10-17T17:16:15.768Z,99500.28
2022-10-17T17:18:43.476Z,99495.22
2022-10-17T17:21:11.011Z,99505.41
2022-10-17T17:23:39.730Z,99508.91
2022-10-17T17:26:21.581Z,99509.88
2022-10-17T17:28:53.478Z,99513.41
2022-10-17T17:31:23.529Z,99515.34
2022-10-17T17:33:51.149Z,99511.97
2022-10-17T17:36:22.914Z,99512.94
2022-10-17T17:38:51.161Z,99516.53
2022-10-17T17:41:19.263Z,99507.25
2022-10-17T17:43:47.305Z,99514.88
2022-10-17T17:46:16.640Z,99513.19
2022-10-17T17:48:46.036Z,99513.31
2022-10-17T17:51:14.367Z,99514.53
2022-10-17T17:53:41.245Z,99507.88
2022-10-17T17:56:16.722Z,99514.72
2022-10-17T17:58:45.815Z,99521.38
2022-10-17T18:04:25.638Z,99511.22
2022-10-17T18:06:52.597Z,99527.81
2022-10-17T18:09:20.378Z,99531.66
2022-10-17T18:11:47.365Z,99523.91
2022-10-17T18:14:14.185Z,99538.81
2022-10-17T18:16:49.624Z,99536.13
2022-10-17T18:19:17.104Z,99539.03
2022-10-17T18:21:44.410Z,99535.28
2022-10-17T18:24:11.227Z,99539.03
2022-10-17T18:26:40.988Z,99534.91
2022-10-17T18:29:07.821Z,99534.88
2022-10-17T18:31:37.525Z,99541.16
2022-10-17T18:34:06.017Z,99529.78
2022-10-17T18:36:34.598Z,99528.09
2022-10-17T18:39:02.716Z,99535.13
2022-10-17T18:41:30.137Z,99536.81
2022-10-17T18:43:57.754Z,99548.91
2022-10-17T18:46:30.393Z,99540.31
2022-10-17T18:48:57.368Z,99540.69
2022-10-17T18:51:26.038Z,99535.34
2022-10-17T18:53:55.741Z,99524.94
2022-10-17T18:56:23.817Z,99529.41
2022-10-17T18:58:51.238Z,99524.19
2022-10-17T19:01:20.909Z,99536.09
2022-10-17T19:03:49.776Z,99539.47
2022-10-17T19:06:19.476Z,99531.00
2022-10-17T19:08:46.884Z,99537.16
2022-10-17T19:11:25.755Z,99540.69
2022-10-17T19:13:53.261Z,99531.59
2022-10-17T19:16:25.255Z,99536.03
2022-10-17T19:18:54.630Z,99540.53
2022-10-17T19:21:22.297Z,99538.22
2022-10-17T19:23:53.381Z,99541.84
2022-10-17T19:26:21.130Z,99539.28
2022-10-17T19:28:48.507Z,99530.81
2022-10-17T19:31:17.963Z,99533.72
2022-10-17T19:33:45.381Z,99542.41
2022-10-17T19:36:13.498Z,99544.22
2022-10-17T19:38:40.162Z,99541.88
2022-10-17T19:41:08.936Z,99531.63
2022-10-17T19:43:37.566Z,99530.13
2022-10-17T19:46:06.944Z,99541.88
2022-10-17T19:48:36.948Z,99541.72
2022-10-17T19:51:10.164Z,99535.59
2022-10-17T19:53:37.608Z,99527.13
2022-10-17T19:56:05.152Z,99538.34
2022-10-17T19:58:34.201Z,99542.09
2022-10-17T20:01:01.400Z,99536.16
2022-10-17T20:03:28.911Z,99531.91
2022-10-17T20:05:57.028Z,99530.94
2022-10-17T20:08:23.714Z,99525.03
2022-10-17T20:10:50.507Z,99530.69
2022-10-17T20:13:17.528Z,99537.69
2022-10-17T20:15:54.351Z,99535.22
2022-10-17T20:18:22.626Z,99536.81
2022-10-17T20:20:49.885Z,99537.16
2022-10-17T20:23:16.785Z,99533.88
2022-10-17T20:25:43.809Z,99539.28
2022-10-17T20:28:11.036Z,99533.13
2022-10-17T20:30:42.742Z,99539.41
2022-10-17T20:33:09.606Z,99552.69
2022-10-17T20:35:41.406Z,99550.03
2022-10-17T20:38:08.318Z,99557.88
2022-10-17T20:40:35.809Z,99552.06
2022-10-17T20:43:07.644Z,99549.41
2022-10-17T20:48:30.865Z,99553.13
2022-10-17T20:50:58.144Z,99549.50
2022-10-17T20:53:36.541Z,99574.28
2022-10-17T20:56:09.796Z,99573.63
2022-10-17T20:58:36.635Z,99560.69
2022-10-17T21:01:08.533Z,99561.22
2022-10-17T21:03:39.820Z,99557.09
2022-10-17T21:06:10.093Z,99562.41
2022-10-17T21:08:36.640Z,99571.94
2022-10-17T21:11:15.300Z,99566.88
2022-10-17T21:13:42.169Z,99563.47
2022-10-17T21:16:11.685Z,99559.84
2022-10-17T21:18:38.737Z,99561.31
2022-10-17T21:21:17.296Z,99570.16
2022-10-17T21:23:46.408Z,99565.69
2022-10-17T21:26:13.709Z,99567.50
2022-10-17T21:28:41.350Z,99559.84
2022-10-17T21:31:14.333Z,99560.81
2022-10-17T21:33:42.631Z,99564.31
2022-10-17T21:36:10.515Z,99560.09
2022-10-17T21:38:38.807Z,99556.69
2022-10-17T21:41:07.444Z,99560.91
2022-10-17T21:43:34.926Z,99556.69
2022-10-17T21:46:03.727Z,99557.53
2022-10-17T21:48:30.280Z,99557.66
2022-10-17T21:51:02.422Z,99560.09
2022-10-17T21:53:28.988Z,99553.81
2022-10-17T21:55:59.582Z,99549.13
2022-10-17T21:58:26.587Z,99555.19
2022-10-17T22:00:53.368Z,99548.50
2022-10-17T22:03:19.948Z,99548.28
2022-10-17T22:05:46.558Z,99551.03
2022-10-17T22:08:13.453Z,99551.16
2022-10-17T22:10:40.869Z,99535.22
2022-10-17T22:13:07.409Z,99532.78
2022-10-17T22:15:34.032Z,99526.63
2022-10-17T22:18:00.565Z,99526.38
2022-10-17T22:20:27.151Z,99520.34
2022-10-17T22:22:53.873Z,99530.13
2022-10-17T22:25:20.609Z,99539.16
2022-10-17T22:27:47.351Z,99540.22
2022-10-17T22:30:13.969Z,99542.28
2022-10-17T22:32:40.573Z,99538.75
2022-10-17T22:35:07.798Z,99535.13
2022-10-17T22:37:34.388Z,99531.53
2022-10-17T22:40:00.908Z,99525.47
2022-10-17T22:42:31.283Z,99527.31
2022-10-17T22:44:57.925Z,99529.19
2022-10-17T22:47:24.470Z,99522.31
2022-10-17T22:49:51.017Z,99527.50
2022-10-17T22:52:17.583Z,99525.81
2022-10-17T22:54:44.152Z,99515.19
2022-10-17T22:57:10.703Z,99516.28
2022-10-17T22:59:37.272Z,99507.59
2022-10-17T23:02:03.940Z,99515.53
2022-10-17T23:04:30.628Z,99514.44
2022-10-17T23:06:57.232Z,99521.59
2022-10-17T23:09:23.849Z,99513.63
2022-10-17T23:11:50.419Z,99513.81
2022-10-17T23:14:17.357Z,99510.34
2022-10-17T23:16:43.924Z,99496.09
2022-10-17T23:19:10.453Z,99501.41
2022-10-17T23:21:37.025Z,99496.09
2022-10-17T23:24:03.632Z,99493.53
2022-10-17T23:26:30.200Z,99489.19
2022-10-17T23:28:56.882Z,99496.31
2022-10-17T23:31:23.868Z,99507.03
2022-10-17T23:33:50.476Z,99501.72
2022-10-17T23:36:19.894Z,99501.00
2022-10-17T23:38:47.904Z,99501.31
2022-10-17T23:41:15.786Z,99497.09
2022-10-17T23:43:43.631Z,99500.59
2022-10-17T23:46:10.540Z,99508.69
2022-10-17T23:48:38.519Z,99509.63
2022-10-17T23:51:06.040Z,99520.25
2022-10-17T23:53:32.716Z,99507.81
2022-10-17T23:55:59.732Z,99491.91
2022-10-17T23:58:26.385Z,99486.91
